Aviation Digital Data Service (ADDS)

Output produced by TAFs form (2025 UTC 20 July 2017)
found at http://www.aviationweather.gov/adds/tafs/
 
Forecast for: RJSK (AKITA AIRPORT , JP)
Text: TAF RJSK 201705Z 2018/2200 14004KT 9999 FEW030
Forecast period: 1800 UTC 20 July 2017 to 0000 UTC 21 July 2017
Forecast type: FROM: standard forecast or significant change
Winds: from the SE (140 degrees) at 5 MPH (4 knots; 2.1 m/s)
Visibility: 6 or more miles (10+ km)
Clouds: few clouds at 3000 feet AGL
Weather: no significant weather forecast for this period
Text: BECMG 2100/2102 30010KT
Forecast period: 0000 to 0900 UTC 21 July 2017
Forecast type: BECOMING: Conditions expected to become as follows by 0200 UTC 21 July 2017
Winds: from the WNW (300 degrees) at 12 MPH (10 knots; 5.2 m/s)
Visibility: 6 or more miles (10+ km)
Clouds: few clouds at 3000 feet AGL
Weather: no significant weather forecast for this period
Text: BECMG 2109/2112 14004KT
Forecast period: 0900 UTC 21 July 2017 to 0000 UTC 22 July 2017
Forecast type: BECOMING: Conditions expected to become as follows by 1200 UTC 21 July 2017
Winds: from the SE (140 degrees) at 5 MPH (4 knots; 2.1 m/s)
Visibility: 6 or more miles (10+ km)
Clouds: few clouds at 3000 feet AGL
Weather: no significant weather forecast for this period